Time;durP1;ratioP1;P1;durP2;ratioP2;P2;SDS_P1;SDS_P2;PMS_P1;PMS_P2;Temp;Humidity;BMP_temperature;BMP_pressure;BME280_temperature;BME280_humidity;BME280_pressure;Samples;Min_cycle;Max_cycle;Signal;HPM_P1;HPM_P2
2022/01/18 00:02:46;;;;;;;21.02;2.90;;;;;;;7.11;82.58;103690.94;10502157;28;20078;-83
2022/01/18 00:07:48;;;;;;;26.65;2.60;;;;;;;7.17;82.45;103690.56;10492407;28;20074;-83
2022/01/18 00:23:05;;;;;;;22.63;2.78;;;;;;;7.07;82.88;103698.22;10500714;28;20049;-83
2022/01/18 00:28:07;;;;;;;22.90;2.67;;;;;;;7.17;83.10;103707.59;10472938;28;20053;-84
2022/01/18 00:38:29;;;;;;;22.55;2.80;;;;;;;7.13;83.54;103717.59;10505917;28;20117;-83
2022/01/18 00:43:30;;;;;;;18.07;2.80;;;;;;;7.25;82.85;103704.94;10517250;28;20135;-83
2022/01/18 00:48:35;;;;;;;20.98;2.95;;;;;;;7.33;82.41;103710.69;10504482;28;20487;-83
2022/01/18 00:53:38;;;;;;;21.13;2.40;;;;;;;7.34;82.63;103716.69;10501819;28;20423;-83
2022/01/18 00:58:42;;;;;;;28.33;2.95;;;;;;;7.30;82.33;103724.16;10526921;28;20044;-83
2022/01/18 01:03:44;;;;;;;23.70;2.65;;;;;;;7.27;83.38;103718.75;10476232;28;20484;-83
2022/01/18 01:08:45;;;;;;;31.63;3.42;;;;;;;7.17;83.33;103723.88;10494849;28;20555;-83
2022/01/18 01:13:50;;;;;;;22.88;2.70;;;;;;;7.12;83.94;103728.63;10496590;28;20044;-83
2022/01/18 01:35:04;;;;;;;27.50;3.13;;;;;;;7.16;84.05;103716.97;10513493;28;20079;-83
2022/01/18 01:45:31;;;;;;;29.52;3.88;;;;;;;7.14;84.81;103726.19;10512865;28;20060;-83
2022/01/18 01:51:08;;;;;;;37.45;4.22;;;;;;;7.03;84.53;103719.25;10487132;28;20037;-83
2022/01/18 01:56:03;;;;;;;43.00;3.90;;;;;;;6.97;85.13;103727.31;10518449;28;20045;-83
2022/01/18 02:01:06;;;;;;;29.10;3.95;;;;;;;7.11;85.90;103721.69;10503472;28;20069;-83
2022/01/18 02:06:08;;;;;;;29.90;3.83;;;;;;;7.12;85.18;103717.44;10507322;28;20418;-83
2022/01/18 02:11:11;;;;;;;40.97;4.80;;;;;;;7.16;85.49;103724.66;10511734;28;20049;-83
2022/01/18 02:21:45;;;;;;;40.20;4.78;;;;;;;7.16;85.50;103714.41;10485587;28;20566;-83
2022/01/18 02:21:46;;;;;;;28.50;4.07;;;;;;;7.04;86.20;103713.31;10474966;28;20147;-83
2022/01/18 02:26:48;;;;;;;33.10;3.65;;;;;;;7.10;86.31;103714.75;10485494;28;20539;-83
2022/01/18 02:31:51;;;;;;;40.35;4.60;;;;;;;6.94;86.16;103721.91;10511529;28;20499;-83
2022/01/18 02:36:54;;;;;;;36.53;3.85;;;;;;;6.81;87.08;103714.84;10493048;28;20467;-83
2022/01/18 02:41:59;;;;;;;36.13;4.88;;;;;;;6.92;87.13;103714.09;10482633;28;20106;-83
2022/01/18 02:47:02;;;;;;;28.00;3.78;;;;;;;7.19;85.53;103719.75;10482042;28;20044;-83
2022/01/18 02:52:04;;;;;;;29.35;3.63;;;;;;;7.09;86.40;103724.91;10529706;28;20072;-83
2022/01/18 02:57:11;;;;;;;56.42;5.25;;;;;;;7.21;85.36;103728.50;10483610;28;20048;-83
2022/01/18 03:07:47;;;;;;;31.50;3.72;;;;;;;7.11;85.84;103718.25;10502984;28;20041;-83
2022/01/18 03:12:48;;;;;;;30.08;3.55;;;;;;;7.25;85.42;103719.41;10490108;28;20509;-83
2022/01/18 03:17:50;;;;;;;20.92;3.40;;;;;;;7.18;85.81;103727.34;10483962;28;20055;-83
2022/01/18 03:22:52;;;;;;;28.77;3.45;;;;;;;7.38;84.98;103721.34;10501149;28;20492;-83
2022/01/18 03:28:06;;;;;;;43.35;6.07;;;;;;;7.24;85.78;103728.78;10478452;28;20044;-83
2022/01/18 03:33:11;;;;;;;30.45;4.70;;;;;;;6.98;86.53;103730.00;10484962;28;20373;-83
2022/01/18 03:38:13;;;;;;;34.50;3.85;;;;;;;7.04;86.51;103734.75;10503128;28;20441;-83
2022/01/18 03:43:15;;;;;;;31.23;4.18;;;;;;;7.25;85.31;103740.84;10496574;28;20496;-83
2022/01/18 03:48:30;;;;;;;22.02;3.95;;;;;;;7.26;85.14;103746.84;10476669;28;20049;-83
2022/01/18 03:53:32;;;;;;;28.60;4.57;;;;;;;7.08;85.61;103748.72;10500878;28;20091;-83
2022/01/18 03:58:34;;;;;;;33.42;4.40;;;;;;;7.15;85.77;103756.19;10515575;28;20094;-83
2022/01/18 04:03:35;;;;;;;30.10;3.90;;;;;;;6.97;87.41;103758.94;10507287;28;20040;-83
2022/01/18 04:08:37;;;;;;;35.50;4.25;;;;;;;7.19;85.83;103759.91;10484376;28;20041;-83
2022/01/18 04:13:39;;;;;;;30.77;4.07;;;;;;;7.21;85.10;103756.69;10483501;28;20052;-83
2022/01/18 04:31:08;;;;;;;29.85;5.20;;;;;;;7.24;85.52;103767.22;10500548;28;20111;-83
2022/01/18 04:36:10;;;;;;;36.97;4.07;;;;;;;7.38;84.95;103768.41;10501469;28;20036;-83
2022/01/18 04:41:15;;;;;;;33.88;3.97;;;;;;;7.33;84.86;103763.66;10516296;28;20052;-83
2022/01/18 04:51:38;;;;;;;;;;;;;;;7.35;84.57;103751.84;10515036;28;20057;-84
2022/01/18 05:01:44;;;;;;;32.20;5.38;;;;;;;7.23;85.42;103760.31;10508092;28;20113;-83
2022/01/18 05:06:48;;;;;;;42.33;4.93;;;;;;;6.99;86.40;103764.22;10555901;28;20104;-83
2022/01/18 05:12:15;;;;;;;39.50;5.32;;;;;;;6.91;86.50;103760.97;10488220;28;20050;-83
2022/01/18 05:17:46;;;;;;;47.20;5.38;;;;;;;6.99;86.16;103767.69;10510533;28;20495;-83
2022/01/18 05:27:59;;;;;;;70.00;5.03;;;;;;;6.88;86.61;103750.47;10504074;28;20377;-83
2022/01/18 05:33:01;;;;;;;30.10;4.85;;;;;;;6.86;86.61;103753.66;10484982;28;20049;-83
2022/01/18 05:38:05;;;;;;;42.90;5.40;;;;;;;6.91;86.23;103767.78;10506000;28;20047;-83
2022/01/18 05:43:07;;;;;;;35.80;5.68;;;;;;;6.95;85.70;103769.84;10535228;28;20094;-83
2022/01/18 05:48:16;;;;;;;40.88;5.53;;;;;;;6.79;86.42;103762.50;10509471;28;20098;-84
2022/01/18 05:53:17;;;;;;;41.90;5.28;;;;;;;6.78;86.64;103761.56;10505569;28;20040;-83
2022/01/18 05:58:19;;;;;;;37.58;4.15;;;;;;;6.79;86.36;103771.06;10523239;28;20083;-83
2022/01/18 06:03:51;;;;;;;28.70;4.55;;;;;;;6.79;86.01;103783.00;10488297;28;20471;-83
2022/01/18 06:08:53;;;;;;;47.08;5.65;;;;;;;6.65;86.44;103777.56;10488379;28;20044;-83
2022/01/18 06:15:04;;;;;;;52.33;6.70;;;;;;;6.66;87.50;103781.88;10486206;28;20055;-82
2022/01/18 06:20:07;;;;;;;52.90;6.57;;;;;;;6.65;86.76;103782.69;10485695;28;20414;-82
2022/01/18 06:25:09;;;;;;;57.17;6.38;;;;;;;6.54;87.40;103777.38;10485982;28;20052;-82
2022/01/18 06:30:11;;;;;;;34.50;6.20;;;;;;;6.73;86.67;103783.34;10500354;28;20105;-82
2022/01/18 06:35:14;;;;;;;50.25;5.95;;;;;;;6.43;87.86;103784.09;10516958;28;20060;-83
2022/01/18 06:40:16;;;;;;;38.47;6.43;;;;;;;6.41;87.35;103785.63;10529630;28;20071;-82
2022/01/18 06:45:18;;;;;;;45.58;6.28;;;;;;;6.67;86.34;103788.81;10560711;28;20071;-82
2022/01/18 06:50:49;;;;;;;37.72;6.53;;;;;;;6.66;86.42;103799.81;10560614;28;20498;-82
2022/01/18 06:55:53;;;;;;;;;;;;;;;6.67;85.85;103791.38;10539398;28;20472;-83
2022/01/18 07:00:57;;;;;;;29.70;5.35;;;;;;;6.53;86.65;103801.19;10484653;28;20291;-83
2022/01/18 07:06:00;;;;;;;27.25;3.97;;;;;;;6.52;86.55;103802.81;10455603;28;20072;-83
2022/01/18 07:11:02;;;;;;;21.60;4.25;;;;;;;6.18;87.24;103810.03;10492965;28;20041;-82
2022/01/18 07:16:04;;;;;;;21.63;4.75;;;;;;;6.33;86.58;103821.69;10467880;28;20044;-82
2022/01/18 07:21:06;;;;;;;27.90;4.80;;;;;;;6.28;86.34;103827.13;10498169;28;20045;-82
2022/01/18 07:26:10;;;;;;;26.48;4.82;;;;;;;6.24;87.29;103840.44;10499855;28;20457;-82
2022/01/18 07:31:12;;;;;;;23.35;5.40;;;;;;;6.51;85.57;103836.91;10499915;28;20127;-82
2022/01/18 07:36:13;;;;;;;25.48;4.57;;;;;;;6.32;86.08;103834.34;10483282;28;20045;-82
2022/01/18 07:41:15;;;;;;;25.42;4.63;;;;;;;6.48;85.44;103832.38;10500572;28;20048;-82
2022/01/18 07:46:18;;;;;;;30.08;4.28;;;;;;;6.43;85.45;103848.13;10482689;28;20072;-82
2022/01/18 07:51:20;;;;;;;19.80;4.30;;;;;;;6.33;85.96;103842.16;10482789;28;20063;-82
2022/01/18 07:56:21;;;;;;;18.85;4.63;;;;;;;5.84;87.81;103848.78;10465960;28;20461;-82
2022/01/18 08:01:23;;;;;;;21.80;3.83;;;;;;;6.45;86.19;103846.56;10516166;28;20082;-82
2022/01/18 08:06:25;;;;;;;21.73;3.90;;;;;;;6.58;85.57;103844.38;10499663;28;20131;-81
2022/01/18 08:11:26;;;;;;;29.05;4.53;;;;;;;6.31;86.72;103843.66;10519999;28;20105;-82
2022/01/18 08:21:30;;;;;;;17.45;4.05;;;;;;;6.62;85.40;103837.88;10524957;28;20487;-83
2022/01/18 08:26:31;;;;;;;22.58;4.40;;;;;;;6.76;84.80;103844.19;10477112;28;20086;-83
2022/01/18 08:31:33;;;;;;;23.85;5.30;;;;;;;6.74;84.77;103838.94;10494699;28;20042;-83
2022/01/18 08:36:37;;;;;;;20.80;4.32;;;;;;;6.76;85.73;103836.50;10520137;28;20514;-83
2022/01/18 08:41:38;;;;;;;24.65;5.13;;;;;;;6.57;85.79;103839.09;10482538;28;20400;-83
2022/01/18 08:46:40;;;;;;;34.05;5.07;;;;;;;6.46;86.10;103833.94;10493428;28;20480;-84
2022/01/18 08:51:41;;;;;;;28.73;5.13;;;;;;;6.79;85.50;103839.38;10477241;28;20051;-84
2022/01/18 08:56:43;;;;;;;22.50;4.75;;;;;;;6.74;85.70;103844.06;10473216;28;20052;-84
2022/01/18 09:01:57;;;;;;;25.67;4.60;;;;;;;7.01;84.55;103851.50;10490740;28;20480;-83
2022/01/18 09:07:07;;;;;;;34.63;4.95;;;;;;;7.07;83.84;103846.91;10473905;28;20045;-83
2022/01/18 09:12:13;;;;;;;34.40;5.68;;;;;;;6.88;86.15;103855.56;10467026;28;20040;-84
2022/01/18 09:17:14;;;;;;;26.88;5.45;;;;;;;6.44;86.54;103855.03;10453896;28;20080;-83
2022/01/18 09:22:16;;;;;;;32.95;5.18;;;;;;;7.22;85.25;103855.94;10468981;28;20546;-83
2022/01/18 09:27:18;;;;;;;29.92;4.97;;;;;;;7.19;84.13;103863.34;10488490;28;20036;-83
2022/01/18 09:32:19;;;;;;;32.65;5.30;;;;;;;7.43;83.80;103858.56;10465582;28;20413;-83
2022/01/18 09:37:21;;;;;;;31.83;5.63;;;;;;;7.22;84.66;103858.50;10475790;28;20044;-83
2022/01/18 09:42:32;;;;;;;26.95;4.95;;;;;;;6.84;84.99;103868.84;10477722;28;20048;-83
2022/01/18 09:47:37;;;;;;;21.63;4.95;;;;;;;6.47;83.63;103880.91;10456340;28;20053;-84
2022/01/18 09:52:40;;;;;;;15.38;3.50;;;;;;;6.56;82.89;103876.63;10496412;28;20403;-85
2022/01/18 09:57:42;;;;;;;29.52;4.53;;;;;;;6.91;83.01;103876.31;10508748;28;20052;-84
2022/01/18 10:02:47;;;;;;;26.02;4.80;;;;;;;6.65;82.60;103885.16;10475442;28;20037;-83
2022/01/18 10:07:59;;;;;;;26.65;5.10;;;;;;;6.80;82.50;103892.41;10491416;28;20099;-84
2022/01/18 10:13:01;;;;;;;29.73;5.10;;;;;;;7.22;82.21;103884.16;10474987;28;20098;-84
2022/01/18 10:18:06;;;;;;;27.08;6.15;;;;;;;6.86;82.16;103885.28;10474013;28;20045;-84
2022/01/18 10:23:19;;;;;;;35.10;6.10;;;;;;;7.40;80.51;103883.97;10476228;28;20080;-84
2022/01/18 10:28:29;;;;;;;26.63;5.65;;;;;;;7.45;80.84;103875.00;10495932;28;20506;-84
2022/01/18 10:33:37;;;;;;;;;;;;;;;7.46;80.47;103871.69;10537141;28;20089;-83
2022/01/18 10:38:50;;;;;;;32.00;6.10;;;;;;;7.46;81.51;103863.97;10500351;28;19920;-84
2022/01/18 10:44:15;;;;;;;34.30;6.40;;;;;;;7.41;80.16;103866.16;10493732;28;20040;-84
2022/01/18 10:49:39;;;;;;;28.13;6.65;;;;;;;7.56;80.21;103860.53;10458788;28;20124;-84
2022/01/18 10:54:51;;;;;;;32.40;6.83;;;;;;;7.53;80.11;103871.44;10475962;28;20163;-84
2022/01/18 11:00:11;;;;;;;25.70;6.18;;;;;;;7.68;79.24;103871.84;10440155;28;20127;-84
2022/01/18 11:05:15;;;;;;;33.55;6.72;;;;;;;7.73;80.18;103864.53;10472754;28;20052;-84
2022/01/18 11:10:20;;;;;;;27.80;6.68;;;;;;;7.78;79.63;103859.03;10522612;28;20571;-84
2022/01/18 11:15:25;;;;;;;22.10;6.07;;;;;;;7.66;79.61;103854.50;10489568;28;20044;-85
2022/01/18 11:20:29;;;;;;;23.17;5.90;;;;;;;7.51;80.08;103842.16;10512812;28;20101;-84
2022/01/18 11:25:31;;;;;;;20.42;6.50;;;;;;;7.23;81.24;103850.06;10542750;28;20076;-84
2022/01/18 11:30:36;;;;;;;19.27;6.35;;;;;;;7.41;80.84;103844.75;10477202;28;20053;-84
2022/01/18 11:36:04;;;;;;;26.35;7.07;;;;;;;7.57;79.85;103842.69;10482442;28;20036;-84
2022/01/18 11:41:07;;;;;;;27.75;5.38;;;;;;;7.68;79.42;103835.91;10507625;28;20044;-84
2022/01/18 11:46:32;;;;;;;25.42;5.38;;;;;;;7.18;79.23;103841.06;10480544;28;20048;-84
2022/01/18 11:51:47;;;;;;;27.58;4.78;;;;;;;7.34;80.41;103838.16;10500220;28;20049;-84
2022/01/18 11:56:49;;;;;;;22.70;4.20;;;;;;;7.62;79.34;103840.53;10496825;28;20126;-84
2022/01/18 12:01:55;;;;;;;22.60;4.25;;;;;;;7.52;80.21;103830.25;10505113;28;20072;-84
2022/01/18 12:06:57;;;;;;;25.98;4.70;;;;;;;7.32;80.80;103820.84;10473761;28;20462;-83
2022/01/18 12:11:59;;;;;;;24.70;4.70;;;;;;;7.72;79.55;103826.81;10491331;28;20044;-84
2022/01/18 12:17:15;;;;;;;18.92;3.70;;;;;;;7.71;78.24;103814.72;10515494;28;20040;-84
2022/01/18 12:22:17;;;;;;;14.63;3.65;;;;;;;8.06;77.34;103806.53;10482301;28;20036;-83
2022/01/18 12:27:31;;;;;;;21.02;4.05;;;;;;;8.16;78.35;103808.19;10483598;28;20052;-84
2022/01/18 12:32:56;;;;;;;23.25;4.63;;;;;;;7.93;78.92;103818.34;10482071;28;20442;-84
2022/01/18 12:37:58;;;;;;;26.95;6.78;;;;;;;8.50;78.71;103801.63;10497607;28;20446;-85
2022/01/18 12:48:18;;;;;;;36.60;8.75;;;;;;;7.96;80.30;103801.41;10488339;28;20083;-84
2022/01/18 12:53:29;;;;;;;36.33;9.57;;;;;;;7.73;81.29;103780.75;10465639;28;20126;-84
2022/01/18 12:58:40;;;;;;;52.38;12.10;;;;;;;7.80;80.25;103783.84;10522671;28;20079;-85
2022/01/18 13:03:45;;;;;;;43.35;11.68;;;;;;;7.65;80.82;103786.91;10477381;28;20049;-84
2022/01/18 13:08:57;;;;;;;37.42;10.90;;;;;;;7.73;81.20;103784.97;10476025;28;20044;-84
2022/01/18 13:14:05;;;;;;;39.17;12.38;;;;;;;7.91;79.81;103773.69;10476838;28;20492;-84
2022/01/18 13:25:03;;;;;;;43.50;12.75;;;;;;;7.96;79.62;103778.28;10476776;28;20117;-84
2022/01/18 13:30:15;;;;;;;41.92;12.93;;;;;;;7.94;80.42;103779.06;10474783;28;20517;-83
2022/01/18 13:35:29;;;;;;;37.42;12.77;;;;;;;7.87;80.70;103771.63;10468884;28;20524;-83
2022/01/18 13:40:34;;;;;;;46.03;14.52;;;;;;;8.10;79.60;103760.72;10483152;28;20049;-84
2022/01/18 13:45:39;;;;;;;42.85;14.60;;;;;;;7.83;80.10;103749.06;10486399;28;20055;-84
2022/01/18 13:50:55;;;;;;;39.78;15.00;;;;;;;7.89;79.34;103748.66;10510697;28;20133;-84
2022/01/18 13:56:18;;;;;;;34.40;13.77;;;;;;;7.90;79.84;103741.09;10470555;28;20169;-83
2022/01/18 14:01:26;;;;;;;40.50;12.95;;;;;;;7.72;80.91;103734.41;10473751;28;20440;-84
2022/01/18 14:06:37;;;;;;;35.50;11.30;;;;;;;7.68;80.95;103732.38;10524656;28;20185;-84
2022/01/18 14:11:48;;;;;;;30.38;11.48;;;;;;;7.72;80.86;103724.16;10502137;28;20065;-84
2022/01/18 14:16:59;;;;;;;30.33;11.30;;;;;;;7.66;80.56;103723.66;10533768;28;20056;-84
2022/01/18 14:22:13;;;;;;;30.45;10.55;;;;;;;7.81;79.71;103718.91;10533949;28;20102;-84
2022/01/18 14:27:26;;;;;;;27.40;10.65;;;;;;;7.71;80.29;103714.66;10500466;28;20495;-83
2022/01/18 14:32:27;;;;;;;31.00;10.02;;;;;;;7.50;80.22;103701.84;10544370;28;20040;-82
2022/01/18 14:37:39;;;;;;;30.55;10.88;;;;;;;7.59;80.88;103701.72;10558579;28;20447;-82
2022/01/18 14:42:50;;;;;;;26.65;9.73;;;;;;;7.48;80.20;103698.28;10516907;28;20123;-83
2022/01/18 14:47:52;;;;;;;30.02;9.55;;;;;;;7.61;80.96;103706.22;10534437;28;20093;-82
2022/01/18 14:52:55;;;;;;;32.58;10.55;;;;;;;7.46;80.50;103700.69;10484313;28;20057;-82
2022/01/18 14:57:58;;;;;;;33.38;9.38;;;;;;;7.43;80.40;103699.53;10477074;28;20053;-82
2022/01/18 15:03:00;;;;;;;35.72;10.43;;;;;;;7.69;80.53;103685.41;10523263;28;20515;-82
2022/01/18 15:08:02;;;;;;;33.75;11.23;;;;;;;7.58;80.14;103682.84;10489941;28;20131;-82
2022/01/18 15:13:07;;;;;;;24.83;10.30;;;;;;;7.40;80.74;103669.41;10543268;28;20110;-82
2022/01/18 15:18:11;;;;;;;34.63;10.70;;;;;;;7.44;79.63;103670.56;10544457;28;20470;-82
2022/01/18 15:23:12;;;;;;;32.28;10.07;;;;;;;7.12;79.83;103672.22;10542998;28;20044;-82
2022/01/18 15:28:29;;;;;;;27.27;10.82;;;;;;;7.18;79.68;103666.72;10559647;28;20064;-81
2022/01/18 15:33:31;;;;;;;29.52;9.50;;;;;;;6.92;79.91;103667.94;10525852;28;20052;-81
2022/01/18 15:38:32;;;;;;;25.73;9.57;;;;;;;6.74;80.30;103667.28;10523143;28;20078;-81
2022/01/18 15:43:34;;;;;;;24.35;9.25;;;;;;;6.58;79.80;103669.28;10525616;28;20568;-81
2022/01/18 15:48:37;;;;;;;21.35;7.90;;;;;;;6.31;80.20;103669.56;10498187;28;20049;-81
2022/01/18 15:53:38;;;;;;;30.38;8.80;;;;;;;5.92;81.33;103662.66;10465711;28;20068;-81
2022/01/18 15:58:40;;;;;;;27.42;8.90;;;;;;;5.91;80.94;103645.53;10499509;28;20041;-81
2022/01/18 16:03:41;;;;;;;21.50;8.70;;;;;;;5.89;80.83;103641.94;10482793;28;20452;-81
2022/01/18 16:08:43;;;;;;;26.60;9.30;;;;;;;5.78;82.15;103640.97;10515669;28;20048;-81
2022/01/18 16:13:45;;;;;;;32.70;9.50;;;;;;;5.58;81.92;103635.72;10524077;28;20056;-82
2022/01/18 16:18:46;;;;;;;30.33;10.23;;;;;;;5.39;83.30;103632.41;10557595;28;20028;-81
2022/01/18 16:23:48;;;;;;;27.65;8.88;;;;;;;5.27;82.29;103641.50;10523897;28;20123;-81
2022/01/18 16:28:50;;;;;;;35.38;9.25;;;;;;;5.01;83.31;103646.75;10523016;28;20048;-81
2022/01/18 16:33:55;;;;;;;35.78;9.38;;;;;;;5.00;83.97;103652.63;10523287;28;20135;-81
2022/01/18 16:38:57;;;;;;;30.15;10.63;;;;;;;4.92;83.50;103651.91;10522961;28;20051;-81
2022/01/18 16:44:00;;;;;;;40.78;10.25;;;;;;;4.66;83.00;103652.91;10523293;28;20078;-81
2022/01/18 16:49:06;;;;;;;30.65;9.32;;;;;;;4.25;85.58;103657.53;10522758;28;20044;-81
2022/01/18 16:54:11;;;;;;;36.05;12.20;;;;;;;4.49;83.26;103647.88;10521327;28;20385;-80
2022/01/18 16:59:13;;;;;;;20.35;9.40;;;;;;;4.49;83.60;103647.88;10480723;28;20048;-80
2022/01/18 17:04:15;;;;;;;22.25;8.02;;;;;;;4.35;83.06;103642.38;10518591;28;20518;-80
2022/01/18 17:09:17;;;;;;;30.02;10.77;;;;;;;3.90;85.86;103643.16;10540688;28;20123;-80
2022/01/18 17:14:18;;;;;;;26.63;9.70;;;;;;;3.74;85.18;103648.44;10522138;28;20071;-80
2022/01/18 17:19:20;;;;;;;35.17;10.32;;;;;;;4.00;83.25;103650.06;10522438;28;20040;-80
2022/01/18 17:24:22;;;;;;;23.55;7.28;;;;;;;3.56;83.36;103644.06;10521814;28;20086;-80
2022/01/18 17:29:24;;;;;;;20.40;7.93;;;;;;;3.57;83.14;103645.88;10555630;28;20052;-80
2022/01/18 17:34:26;;;;;;;19.65;7.47;;;;;;;3.40;83.47;103642.53;10515977;28;20093;-80
2022/01/18 17:39:29;;;;;;;18.92;8.23;;;;;;;3.28;82.89;103641.34;10502968;28;20032;-80
2022/01/18 17:44:31;;;;;;;12.13;5.30;;;;;;;3.03;83.71;103632.88;10488357;28;20075;-79
2022/01/18 17:49:33;;;;;;;16.52;5.10;;;;;;;2.78;82.87;103633.84;10488776;28;20407;-81
2022/01/18 17:54:34;;;;;;;154.77;7.47;;;;;;;2.50;82.62;103622.50;10506037;28;20049;-81
2022/01/18 17:59:36;;;;;;;226.52;8.88;;;;;;;2.16;82.98;103619.91;10488456;28;20036;-80
2022/01/18 18:04:39;;;;;;;61.25;6.05;;;;;;;1.93;82.21;103619.16;10488250;28;20079;-81
2022/01/18 18:09:48;;;;;;;272.92;10.98;;;;;;;1.48;82.93;103610.25;10490398;28;20052;-80
2022/01/18 18:14:50;;;;;;;399.25;11.75;;;;;;;1.66;82.77;103607.88;10487313;28;20076;-80
2022/01/18 18:19:52;;;;;;;203.80;8.85;;;;;;;1.47;83.18;103623.69;10486643;28;20098;-80
2022/01/18 18:24:58;;;;;;;82.15;5.43;;;;;;;1.39;84.26;103627.97;10487554;28;20478;-80
2022/01/18 18:30:00;;;;;;;132.20;8.88;;;;;;;1.39;84.06;103615.28;10486691;28;20395;-80
2022/01/18 18:35:03;;;;;;;70.93;6.07;;;;;;;1.67;83.21;103602.06;10502893;28;20048;-81
2022/01/18 18:40:11;;;;;;;62.55;6.50;;;;;;;1.33;84.31;103573.06;10486052;28;20041;-80
2022/01/18 18:45:13;;;;;;;164.50;8.68;;;;;;;1.30;84.38;103580.38;10485951;28;20048;-80
2022/01/18 18:50:15;;;;;;;42.25;5.68;;;;;;;1.07;84.79;103606.75;10485351;28;20151;-80
2022/01/18 18:55:18;;;;;;;51.85;7.32;;;;;;;0.95;85.59;103611.38;10485566;28;20053;-80
2022/01/18 19:05:24;;;;;;;57.38;6.03;;;;;;;1.26;84.96;103620.66;10485973;28;20072;-80
2022/01/18 19:10:28;;;;;;;240.43;11.70;;;;;;;1.10;85.18;103628.28;10485072;28;20098;-80
2022/01/18 19:15:31;;;;;;;101.05;7.30;;;;;;;1.09;84.78;103625.56;10484727;28;20075;-80
2022/01/18 19:20:32;;;;;;;30.92;6.18;;;;;;;1.14;84.93;103629.53;10484942;28;20482;-80
2022/01/18 19:25:36;;;;;;;179.90;9.25;;;;;;;1.21;84.30;103621.81;10485924;28;20049;-80
2022/01/18 19:30:37;;;;;;;130.73;8.52;;;;;;;1.14;85.34;103628.59;10502225;28;20048;-80
2022/01/18 19:35:40;;;;;;;137.68;8.07;;;;;;;1.14;84.62;103624.44;10484770;28;20056;-80
2022/01/18 19:40:42;;;;;;;207.82;9.82;;;;;;;1.20;84.87;103625.09;10467181;28;20074;-80
2022/01/18 19:45:43;;;;;;;165.52;8.40;;;;;;;1.19;84.61;103613.13;10483595;28;20143;-80
2022/01/18 19:50:48;;;;;;;111.43;9.30;;;;;;;1.26;84.47;103613.06;10483512;28;20049;-80
2022/01/18 19:55:50;;;;;;;207.85;12.00;;;;;;;1.16;84.81;103624.59;10483160;28;20052;-80
2022/01/18 20:00:54;;;;;;;378.02;20.85;;;;;;;1.05;85.97;103628.50;10482151;28;20514;-80
2022/01/18 20:05:57;;;;;;;289.95;15.55;;;;;;;0.74;87.54;103617.56;10482844;28;20054;-80
2022/01/18 20:11:02;;;;;;;339.52;18.23;;;;;;;1.05;87.62;103613.28;10482495;28;20078;-80
2022/01/18 20:16:04;;;;;;;332.38;16.48;;;;;;;1.00;88.43;103604.28;10483101;28;20044;-80
2022/01/18 20:21:08;;;;;;;134.35;14.07;;;;;;;1.40;87.05;103603.47;10482684;28;20045;-79
2022/01/18 20:26:10;;;;;;;27.15;10.77;;;;;;;1.62;86.43;103588.88;10482162;28;20139;-80
2022/01/18 20:31:16;;;;;;;27.25;10.90;;;;;;;1.85;85.46;103581.09;10465428;28;20152;-80
2022/01/18 20:36:18;;;;;;;26.50;10.85;;;;;;;1.92;85.80;103572.50;10482017;28;20094;-80
2022/01/18 20:41:30;;;;;;;24.33;10.05;;;;;;;2.01;86.53;103567.44;10481448;28;20438;-81
2022/01/18 20:46:32;;;;;;;44.70;14.73;;;;;;;2.05;87.44;103559.38;10481208;28;20091;-81
2022/01/18 20:51:34;;;;;;;45.60;17.65;;;;;;;2.29;86.31;103560.13;10481162;28;20063;-80
2022/01/18 20:56:37;;;;;;;46.97;19.02;;;;;;;2.35;85.93;103555.66;10465097;28;20136;-80
2022/01/18 21:01:38;;;;;;;49.35;18.45;;;;;;;2.50;86.04;103536.84;10480986;28;20045;-80
2022/01/18 21:06:40;;;;;;;60.15;20.67;;;;;;;2.46;87.84;103523.66;10480680;28;20053;-81
2022/01/18 21:11:50;;;;;;;50.40;20.55;;;;;;;2.71;87.35;103514.34;10480593;28;20068;-80
2022/01/18 21:16:52;;;;;;;60.38;19.38;;;;;;;2.67;86.73;103496.94;10480468;28;20111;-80
2022/01/18 21:21:54;;;;;;;61.72;21.83;;;;;;;2.78;88.35;103506.56;10504639;28;20068;-80
2022/01/18 21:26:56;;;;;;;67.90;20.23;;;;;;;2.56;88.32;103515.34;10521731;28;20142;-81
2022/01/18 21:31:57;;;;;;;65.97;21.58;;;;;;;2.96;88.27;103507.47;10555143;28;20498;-80
2022/01/18 21:37:00;;;;;;;57.35;20.38;;;;;;;2.73;88.45;103495.00;10507703;28;20040;-80
2022/01/18 21:42:02;;;;;;;61.80;20.85;;;;;;;3.03;88.77;103480.94;10512971;28;20041;-80
2022/01/18 21:47:04;;;;;;;62.88;18.52;;;;;;;3.24;86.81;103491.47;10513198;28;20045;-80
2022/01/18 21:52:06;;;;;;;54.50;18.75;;;;;;;3.13;88.81;103478.56;10488085;28;20052;-81
2022/01/18 21:57:07;;;;;;;55.45;18.48;;;;;;;3.43;87.93;103482.28;10541542;28;20044;-80
2022/01/18 22:02:09;;;;;;;60.90;20.52;;;;;;;3.52;87.37;103473.75;10538054;28;20074;-80
2022/01/18 22:07:12;;;;;;;51.90;19.50;;;;;;;3.79;87.19;103471.28;10490194;28;20056;-80
2022/01/18 22:12:13;;;;;;;61.78;21.60;;;;;;;3.55;87.61;103451.06;10462833;28;20090;-80
2022/01/18 22:17:15;;;;;;;64.82;19.02;;;;;;;3.69;88.24;103447.31;10479178;28;20131;-80
2022/01/18 22:22:17;;;;;;;51.28;16.85;;;;;;;3.67;87.84;103429.31;10478951;28;20094;-80
2022/01/18 22:27:18;;;;;;;67.13;18.02;;;;;;;3.79;87.80;103412.63;10486615;28;20381;-80
2022/01/18 22:32:20;;;;;;;54.25;17.02;;;;;;;3.72;87.76;103397.50;10486548;28;20049;-80
2022/01/18 22:37:21;;;;;;;55.05;18.55;;;;;;;3.47;88.37;103387.53;10486949;28;20053;-81
2022/01/18 22:42:23;;;;;;;60.08;17.05;;;;;;;3.60;87.14;103360.66;10486314;28;20450;-80
2022/01/18 22:47:25;;;;;;;59.55;16.65;;;;;;;3.15;87.07;103349.69;10486583;28;20052;-81
2022/01/18 22:52:29;;;;;;;62.88;17.83;;;;;;;3.11;87.49;103347.59;10469593;28;20452;-80
2022/01/18 22:57:31;;;;;;;66.25;16.13;;;;;;;3.22;86.46;103340.09;10485916;28;20048;-80
2022/01/18 23:02:33;;;;;;;309.20;19.58;;;;;;;3.08;86.72;103329.50;10489540;28;20127;-80
2022/01/18 23:07:35;;;;;;;189.48;16.80;;;;;;;3.01;84.80;103325.44;10502569;28;20522;-80
2022/01/18 23:12:37;;;;;;;374.40;23.15;;;;;;;2.96;86.51;103336.84;10486263;28;20572;-80
2022/01/18 23:17:39;;;;;;;159.88;17.67;;;;;;;2.90;85.70;103336.28;10485389;28;20127;-80
2022/01/18 23:22:40;;;;;;;505.75;25.73;;;;;;;2.50;86.53;103324.75;10484648;28;20446;-81
2022/01/18 23:27:42;;;;;;;312.63;18.48;;;;;;;2.56;87.58;103327.88;10485056;28;20052;-81
2022/01/18 23:32:43;;;;;;;605.35;25.92;;;;;;;2.62;86.52;103347.97;10524717;28;20452;-81
2022/01/18 23:37:49;;;;;;;326.17;22.50;;;;;;;2.72;86.26;103345.53;10525553;28;20098;-81
2022/01/18 23:42:51;;;;;;;408.92;24.23;;;;;;;2.67;86.45;103337.47;10484316;28;20484;-81
2022/01/18 23:47:53;;;;;;;577.10;30.50;;;;;;;2.32;87.45;103326.38;10517542;28;20047;-80
2022/01/18 23:52:54;;;;;;;525.47;23.70;;;;;;;2.34;88.04;103309.63;10483883;28;20041;-80
2022/01/18 23:57:56;;;;;;;532.13;29.95;;;;;;;1.85;88.90;103280.25;10519657;28;20056;-80
